Time;durP1;ratioP1;P1;durP2;ratioP2;P2;SDS_P1;SDS_P2;PMS_P1;PMS_P2;Temp;Humidity;BMP_temperature;BMP_pressure;BME280_temperature;BME280_humidity;BME280_pressure;Samples;Min_cycle;Max_cycle;Signal;HPM_P1;HPM_P2
2023/02/01 00:01:21;;;;;;;4.73;1.80;;;15.80;59.10;;;;;;5111068;28;20204;-48
2023/02/01 00:03:48;;;;;;;2.70;1.87;;;15.80;59.10;;;;;;5106487;28;20293;-48
2023/02/01 00:06:20;;;;;;;2.83;2.00;;;15.80;59.20;;;;;;5115368;27;20200;-48
2023/02/01 00:08:54;;;;;;;4.30;1.90;;;15.80;59.20;;;;;;5094689;28;20636;-48
2023/02/01 00:11:28;;;;;;;4.90;2.27;;;15.80;59.20;;;;;;5088403;28;20252;-47
2023/02/01 00:14:01;;;;;;;3.63;2.20;;;15.80;59.20;;;;;;5109561;28;20192;-48
2023/02/01 00:16:31;;;;;;;3.80;2.37;;;15.80;59.90;;;;;;5081938;28;20562;-47
2023/02/01 00:19:24;;;;;;;4.80;2.10;;;15.80;59.30;;;;;;5113598;27;20192;-48
2023/02/01 00:21:52;;;;;;;4.23;1.90;;;15.80;59.30;;;;;;5096541;28;20608;-48
2023/02/01 00:24:22;;;;;;;2.30;1.70;;;15.80;59.30;;;;;;5108031;28;20200;-47
2023/02/01 00:26:51;;;;;;;4.17;2.10;;;15.80;59.30;;;;;;5102429;28;20461;-48
2023/02/01 00:29:23;;;;;;;3.90;1.87;;;15.80;59.40;;;;;;5107934;27;20211;-48
2023/02/01 00:31:55;;;;;;;3.93;1.80;;;15.80;59.30;;;;;;5112331;27;20677;-48
2023/02/01 00:34:24;;;;;;;2.63;1.60;;;15.80;59.30;;;;;;5108052;28;20224;-47
2023/02/01 00:36:51;;;;;;;4.50;1.50;;;15.70;59.30;;;;;;5108932;28;20778;-48
2023/02/01 00:39:21;;;;;;;2.83;1.80;;;15.80;59.30;;;;;;5106075;27;20212;-48
2023/02/01 00:41:52;;;;;;;4.67;2.00;;;15.80;59.40;;;;;;5109015;28;20180;-48
2023/02/01 00:44:19;;;;;;;4.30;2.17;;;15.80;59.30;;;;;;5108572;28;20216;-48
2023/02/01 00:46:51;;;;;;;3.70;2.20;;;15.80;59.40;;;;;;5112084;27;20567;-48
2023/02/01 00:49:22;;;;;;;3.97;1.80;;;15.70;59.40;;;;;;5106499;28;20211;-48
2023/02/01 00:51:52;;;;;;;3.00;1.50;;;15.70;59.30;;;;;;5107194;28;20216;-48
2023/02/01 00:54:22;;;;;;;4.03;2.00;;;15.70;59.30;;;;;;5108575;28;20500;-48
2023/02/01 00:56:51;;;;;;;6.33;2.33;;;15.80;59.40;;;;;;5105930;28;20215;-48
2023/02/01 00:59:22;;;;;;;3.53;2.27;;;15.80;59.40;;;;;;5091168;28;20204;-48
2023/02/01 01:01:53;;;;;;;4.97;1.70;;;15.80;59.50;;;;;;5108749;27;20552;-48
2023/02/01 01:04:24;;;;;;;4.20;2.00;;;15.70;59.40;;;;;;5109361;27;20218;-48
2023/02/01 01:06:53;;;;;;;3.27;1.77;;;15.70;59.40;;;;;;5108044;27;20185;-48
2023/02/01 01:09:24;;;;;;;4.30;2.10;;;15.70;59.40;;;;;;5107858;28;20204;-48
2023/02/01 01:11:53;;;;;;;6.33;2.27;;;15.70;59.50;;;;;;5107699;28;20680;-48
2023/02/01 01:14:24;;;;;;;3.20;2.20;;;15.70;59.50;;;;;;5090256;28;20211;-48
2023/02/01 01:16:52;;;;;;;4.47;2.13;;;15.70;59.50;;;;;;5108519;27;20212;-48
2023/02/01 01:19:23;;;;;;;3.20;1.87;;;15.70;59.50;;;;;;5107746;28;20223;-48
2023/02/01 01:21:58;;;;;;;3.20;1.63;;;15.70;59.50;;;;;;5107211;27;20728;-48
2023/02/01 01:24:27;;;;;;;6.10;1.90;;;15.70;59.50;;;;;;5107652;28;20645;-48
2023/02/01 01:26:57;;;;;;;3.20;1.87;;;15.70;59.60;;;;;;5105279;28;20220;-48
2023/02/01 01:29:27;;;;;;;4.80;2.10;;;15.70;59.50;;;;;;5107385;28;20665;-48
2023/02/01 01:31:57;;;;;;;3.00;1.90;;;15.70;59.60;;;;;;5108674;28;20597;-48
2023/02/01 01:34:27;;;;;;;3.83;1.87;;;15.70;59.60;;;;;;5105519;28;20228;-48
2023/02/01 01:37:10;;;;;;;3.50;1.67;;;15.70;59.60;;;;;;5107566;28;20354;-48
2023/02/01 01:39:41;;;;;;;5.57;1.60;;;15.70;59.70;;;;;;5101817;28;20580;-48
2023/02/01 01:42:13;;;;;;;5.20;2.20;;;15.70;59.70;;;;;;5107912;28;20211;-48
2023/02/01 01:45:09;;;;;;;3.50;1.30;;;15.60;59.70;;;;;;5071164;28;20257;-48
2023/02/01 01:47:46;;;;;;;3.97;1.60;;;15.70;59.70;;;;;;5106900;28;20245;-48
2023/02/01 01:50:23;;;;;;;3.97;1.73;;;15.60;59.80;;;;;;5107567;28;20223;-48
2023/02/01 01:52:55;;;;;;;3.13;1.53;;;15.60;59.80;;;;;;5091174;28;20199;-48
2023/02/01 01:55:30;;;;;;;2.70;1.40;;;15.60;59.80;;;;;;5107362;28;20279;-48
2023/02/01 01:58:13;;;;;;;3.23;1.57;;;15.60;59.80;;;;;;5093871;28;20208;-48
2023/02/01 02:00:47;;;;;;;2.63;1.50;;;15.60;59.90;;;;;;5090215;28;20184;-48
2023/02/01 02:03:33;;;;;;;3.30;1.60;;;15.60;59.80;;;;;;5086618;28;20204;-48
2023/02/01 02:06:19;;;;;;;3.47;2.03;;;15.60;59.80;;;;;;5090742;28;20727;-48
2023/02/01 02:08:51;;;;;;;4.33;1.53;;;15.60;59.80;;;;;;5090629;28;20732;-48
2023/02/01 02:11:22;;;;;;;5.67;1.97;;;15.60;59.80;;;;;;5116210;28;20664;-48
2023/02/01 02:13:57;;;;;;;2.90;1.40;;;15.60;59.90;;;;;;5110520;28;20297;-48
2023/02/01 02:16:55;;;;;;;3.43;1.63;;;15.60;59.80;;;;;;5092726;28;20200;-48
2023/02/01 02:20:17;;;;;;;2.77;1.80;;;15.60;59.80;;;;;;5098595;28;20692;-48
2023/02/01 02:23:10;;;;;;;3.37;1.60;;;15.60;59.90;;;;;;5036214;28;20209;-48
2023/02/01 02:26:00;;;;;;;3.80;1.67;;;15.60;60.00;;;;;;5100918;28;20254;-48
2023/02/01 02:29:16;;;;;;;4.87;2.20;;;15.60;60.00;;;;;;5100321;28;20220;-48
2023/02/01 02:32:21;;;;;;;3.83;2.00;;;15.50;60.00;;;;;;5108992;28;20196;-48
2023/02/01 02:35:26;;;;;;;4.83;1.50;;;15.60;60.00;;;;;;5084286;28;20240;-48
2023/02/01 02:38:20;;;;;;;4.77;1.77;;;15.50;60.00;;;;;;5112158;27;20212;-48
2023/02/01 02:48:25;;;;;;;3.97;1.83;;;15.50;60.10;;;;;;5057308;28;20783;-48
2023/02/01 02:54:53;;;;;;;5.23;1.73;;;15.50;60.10;;;;;;5006728;28;20785;-48
2023/02/01 03:06:18;;;;;;;2.77;1.40;;;15.50;60.10;;;;;;5049136;28;20577;-48
2023/02/01 03:08:56;;;;;;;4.90;1.70;;;15.50;60.10;;;;;;5031128;28;20222;-48
2023/02/01 03:12:55;;;;;;;3.87;2.00;;;15.50;60.20;;;;;;5048243;28;20639;-48
2023/02/01 03:14:26;;;;;;;5.27;1.70;;;15.50;60.10;;;;;;5050126;28;20202;-48
2023/02/01 03:17:15;;;;;;;4.67;1.67;;;15.50;60.10;;;;;;5052652;28;20603;-48
2023/02/01 03:19:49;;;;;;;4.57;2.00;;;15.50;60.20;;;;;;5062818;28;20198;-48
2023/02/01 03:22:24;;;;;;;3.57;1.93;;;15.40;60.20;;;;;;5043518;27;20190;-48
2023/02/01 03:24:59;;;;;;;4.10;1.90;;;15.50;60.20;;;;;;5111871;27;20199;-48
2023/02/01 03:27:34;;;;;;;4.00;1.90;;;15.50;60.20;;;;;;5105796;27;20216;-48
2023/02/01 03:30:09;;;;;;;2.63;1.83;;;15.40;60.20;;;;;;5096676;28;20214;-48
2023/02/01 03:32:58;;;;;;;3.40;1.67;;;15.40;60.10;;;;;;5108630;28;20781;-48
2023/02/01 03:35:37;;;;;;;3.33;1.80;;;15.50;60.20;;;;;;5089093;28;20227;-48
2023/02/01 03:38:18;;;;;;;4.53;1.83;;;15.40;60.20;;;;;;5089239;28;20231;-48
2023/02/01 03:41:15;;;;;;;4.70;1.93;;;15.40;60.20;;;;;;5082780;28;20193;-48
2023/02/01 03:44:18;;;;;;;3.47;1.53;;;15.40;60.10;;;;;;5093435;28;20216;-48
2023/02/01 03:46:57;;;;;;;3.00;1.70;;;15.40;60.20;;;;;;5057682;28;20429;-48
2023/02/01 03:49:57;;;;;;;4.23;1.60;;;15.40;60.30;;;;;;5088095;28;20208;-48
2023/02/01 03:53:03;;;;;;;2.50;1.20;;;15.40;60.30;;;;;;5072242;28;20212;-47
2023/02/01 03:55:32;;;;;;;4.10;1.53;;;15.40;60.30;;;;;;5050926;28;20214;-48
2023/02/01 03:58:17;;;;;;;4.47;1.77;;;15.40;60.30;;;;;;5042629;28;20258;-48
2023/02/01 04:00:52;;;;;;;4.77;1.80;;;15.40;60.30;;;;;;5044226;28;20292;-48
2023/02/01 04:03:27;;;;;;;3.07;1.47;;;15.40;60.30;;;;;;5032155;28;20674;-48
2023/02/01 04:05:55;;;;;;;4.47;1.70;;;15.40;60.30;;;;;;5042318;28;20195;-48
2023/02/01 04:08:26;;;;;;;5.03;1.90;;;15.40;60.30;;;;;;5019455;28;20207;-48
2023/02/01 04:10:57;;;;;;;4.93;2.00;;;15.30;60.30;;;;;;5047846;28;20628;-47
2023/02/01 04:13:29;;;;;;;4.70;2.13;;;15.40;60.30;;;;;;5047055;28;20198;-48
2023/02/01 04:16:00;;;;;;;3.87;1.50;;;15.40;60.30;;;;;;5043975;28;20217;-48
2023/02/01 04:18:30;;;;;;;3.50;1.80;;;15.40;60.30;;;;;;5043366;28;20226;-48
2023/02/01 04:21:00;;;;;;;3.23;1.97;;;15.40;60.30;;;;;;5048113;28;20694;-48
2023/02/01 04:23:33;;;;;;;3.80;1.60;;;15.40;60.40;;;;;;5025234;28;20190;-48
2023/02/01 04:26:04;;;;;;;2.60;1.30;;;15.40;60.40;;;;;;5068432;28;20182;-48
2023/02/01 04:28:37;;;;;;;5.17;1.97;;;15.40;60.30;;;;;;5086918;28;20543;-48
2023/02/01 04:31:08;;;;;;;4.37;1.43;;;15.40;60.30;;;;;;5093409;28;20743;-48
2023/02/01 04:33:37;;;;;;;5.70;2.10;;;15.40;60.40;;;;;;5089635;28;20205;-48
2023/02/01 04:36:12;;;;;;;4.93;1.63;;;15.40;60.30;;;;;;5109503;28;20514;-48
2023/02/01 04:38:40;;;;;;;2.83;1.40;;;15.40;60.40;;;;;;5106256;27;20219;-48
2023/02/01 04:41:10;;;;;;;3.70;1.50;;;15.40;60.40;;;;;;5110515;28;20525;-48
2023/02/01 04:43:54;;;;;;;5.60;1.77;;;15.40;60.50;;;;;;5114757;27;20279;-48
2023/02/01 04:46:25;;;;;;;4.83;1.50;;;15.30;60.40;;;;;;5110644;28;20200;-48
2023/02/01 04:48:56;;;;;;;3.17;2.30;;;15.40;60.50;;;;;;5111241;28;20188;-48
2023/02/01 04:51:27;;;;;;;3.20;1.60;;;15.40;60.50;;;;;;5106698;28;20220;-47
2023/02/01 04:53:58;;;;;;;2.63;1.27;;;15.40;60.50;;;;;;5108905;27;20218;-48
2023/02/01 04:56:30;;;;;;;5.63;1.73;;;15.40;60.60;;;;;;5105226;28;20207;-48
2023/02/01 04:58:58;;;;;;;3.23;1.70;;;15.30;60.50;;;;;;5112729;27;20697;-47
2023/02/01 05:01:32;;;;;;;5.50;1.80;;;15.30;60.50;;;;;;5075505;28;20261;-47
2023/02/01 05:04:00;;;;;;;3.20;1.60;;;15.40;60.50;;;;;;5105255;27;20240;-48
2023/02/01 05:06:32;;;;;;;3.00;1.60;;;15.40;60.60;;;;;;5106085;28;20505;-48
2023/02/01 05:09:04;;;;;;;4.63;1.70;;;15.40;60.50;;;;;;5102587;28;20785;-47
2023/02/01 05:14:26;;;;;;;4.10;1.77;;;15.30;60.50;;;;;;5113224;27;20206;-48
2023/02/01 05:16:57;;;;;;;4.17;1.80;;;15.30;60.60;;;;;;5086116;28;20253;-48
2023/02/01 05:19:29;;;;;;;4.30;1.93;;;15.30;60.60;;;;;;5108444;28;20212;-48
2023/02/01 05:22:00;;;;;;;4.07;1.60;;;15.30;60.60;;;;;;5095412;28;20188;-48
2023/02/01 05:24:32;;;;;;;3.33;1.63;;;15.30;60.60;;;;;;5106179;28;20567;-47
2023/02/01 05:27:03;;;;;;;3.53;2.20;;;15.30;60.60;;;;;;5104142;28;20208;-48
2023/02/01 05:29:34;;;;;;;5.43;1.90;;;15.30;60.60;;;;;;5124413;27;20886;-48
2023/02/01 05:32:03;;;;;;;4.67;2.00;;;15.30;60.60;;;;;;5108653;28;20188;-48
2023/02/01 05:34:49;;;;;;;2.87;1.47;;;15.30;60.60;;;;;;5085325;28;20807;-48
2023/02/01 05:37:18;;;;;;;4.37;1.73;;;15.30;60.60;;;;;;5087660;28;20277;-47
2023/02/01 05:39:50;;;;;;;2.93;1.33;;;15.30;60.60;;;;;;5090888;28;20272;-48
2023/02/01 05:42:19;;;;;;;4.60;1.87;;;15.30;60.60;;;;;;5091414;28;20211;-48
2023/02/01 05:44:46;;;;;;;5.20;1.80;;;15.30;60.60;;;;;;5105505;28;20735;-48
2023/02/01 05:47:18;;;;;;;4.57;1.60;;;15.30;60.60;;;;;;5087392;28;20597;-48
2023/02/01 05:49:57;;;;;;;3.77;1.23;;;15.30;60.60;;;;;;5087939;28;20561;-47
2023/02/01 05:52:27;;;;;;;4.63;1.70;;;15.30;60.60;;;;;;5079510;28;20790;-48
2023/02/01 05:54:59;;;;;;;5.50;2.00;;;15.30;60.60;;;;;;5094010;28;20254;-48
2023/02/01 05:57:30;;;;;;;4.00;1.50;;;15.20;60.50;;;;;;5101044;28;20225;-48
2023/02/01 06:00:04;;;;;;;4.20;2.00;;;15.30;60.60;;;;;;5086499;28;20246;-48
2023/02/01 06:02:35;;;;;;;5.80;1.53;;;15.30;60.50;;;;;;5068976;28;20189;-48
2023/02/01 06:05:07;;;;;;;4.37;1.80;;;15.30;60.40;;;;;;5087511;28;20201;-48
2023/02/01 06:07:37;;;;;;;4.50;1.50;;;15.20;60.40;;;;;;5076888;28;20635;-48
2023/02/01 06:10:19;;;;;;;5.50;1.77;;;15.20;60.40;;;;;;5091224;28;20298;-48
2023/02/01 06:12:52;;;;;;;6.50;2.00;;;15.30;60.40;;;;;;5091970;28;20197;-48
2023/02/01 06:15:22;;;;;;;5.63;1.63;;;15.20;60.40;;;;;;5088103;28;20313;-48
2023/02/01 06:17:52;;;;;;;4.13;1.83;;;15.20;60.40;;;;;;5091428;28;20201;-48
2023/02/01 06:20:21;;;;;;;5.17;1.90;;;15.30;60.40;;;;;;5089387;28;20760;-48
2023/02/01 06:22:52;;;;;;;5.70;1.83;;;15.20;60.30;;;;;;5089627;28;20187;-48
2023/02/01 06:25:21;;;;;;;5.40;2.00;;;15.20;60.20;;;;;;5093776;28;20194;-48
2023/02/01 06:28:05;;;;;;;3.47;1.57;;;15.20;60.20;;;;;;5089743;28;20343;-48
2023/02/01 06:30:47;;;;;;;6.27;2.20;;;15.20;60.20;;;;;;5091217;28;20548;-48
2023/02/01 06:33:19;;;;;;;4.87;1.90;;;15.20;60.20;;;;;;5096918;28;20201;-47
2023/02/01 06:35:49;;;;;;;7.47;2.07;;;15.20;60.20;;;;;;5113545;28;20216;-47
2023/02/01 06:38:20;;;;;;;5.40;1.77;;;15.20;60.20;;;;;;5115425;28;20793;-47
2023/02/01 06:40:56;;;;;;;9.83;1.80;;;15.20;60.10;;;;;;5097986;27;20238;-48
2023/02/01 06:43:28;;;;;;;5.40;1.90;;;15.20;60.10;;;;;;5095805;28;20195;-48
2023/02/01 06:46:04;;;;;;;5.40;1.67;;;15.20;60.50;;;;;;5097714;28;20196;-47
2023/02/01 06:48:36;;;;;;;3.47;1.83;;;15.20;59.90;;;;;;5092431;28;20321;-48
2023/02/01 06:51:29;;;;;;;4.40;1.90;;;15.20;59.80;;;;;;5107914;27;20366;-48
2023/02/01 06:54:01;;;;;;;7.40;1.90;;;15.30;59.80;;;;;;5110594;28;20256;-48
2023/02/01 06:56:33;;;;;;;6.70;2.00;;;15.20;60.00;;;;;;5092647;28;20222;-48
2023/02/01 06:59:14;;;;;;;4.37;2.03;;;15.20;59.80;;;;;;5089751;27;20722;-48
2023/02/01 07:01:47;;;;;;;5.87;2.30;;;15.20;59.90;;;;;;5077620;28;20196;-48
2023/02/01 07:04:19;;;;;;;5.33;2.00;;;15.20;59.80;;;;;;5109002;28;20657;-48
2023/02/01 07:06:49;;;;;;;5.90;1.87;;;15.20;59.80;;;;;;5104379;27;20207;-47
2023/02/01 07:09:19;;;;;;;3.70;1.70;;;15.20;59.70;;;;;;5104793;27;20641;-47
2023/02/01 07:12:04;;;;;;;5.87;2.13;;;15.20;59.70;;;;;;5117281;27;20353;-47
2023/02/01 07:14:36;;;;;;;5.17;1.83;;;15.20;59.70;;;;;;5104094;27;20188;-48
2023/02/01 07:17:10;;;;;;;5.37;1.90;;;15.30;59.70;;;;;;5109571;27;20204;-47
2023/02/01 07:19:44;;;;;;;5.33;1.90;;;15.20;59.70;;;;;;5103380;27;20221;-47
2023/02/01 07:22:16;;;;;;;4.33;1.83;;;15.20;59.90;;;;;;5084485;28;20649;-47
2023/02/01 07:24:43;;;;;;;4.93;1.97;;;15.30;60.20;;;;;;5088053;28;20602;-47
2023/02/01 07:27:14;;;;;;;6.93;1.80;;;15.50;60.20;;;;;;5090734;28;20204;-47
2023/02/01 07:29:46;;;;;;;6.50;2.10;;;15.80;59.80;;;;;;5081843;28;20281;-47
2023/02/01 07:32:17;;;;;;;4.07;1.50;;;16.00;59.30;;;;;;5108065;28;20232;-47
2023/02/01 07:34:46;;;;;;;11.00;2.13;;;16.20;58.80;;;;;;5106440;27;20247;-47
2023/02/01 07:37:16;;;;;;;11.97;1.70;;;16.40;58.40;;;;;;5108486;27;20207;-45
2023/02/01 07:39:46;;;;;;;6.67;1.77;;;16.60;57.90;;;;;;5091239;27;20231;-45
2023/02/01 07:42:16;;;;;;;7.07;2.20;;;16.90;57.50;;;;;;5107690;27;20196;-45
2023/02/01 07:44:46;;;;;;;5.73;2.07;;;17.00;57.10;;;;;;5088838;28;20226;-45
2023/02/01 07:47:14;;;;;;;6.97;2.10;;;17.20;56.60;;;;;;5085959;28;20262;-47
2023/02/01 07:49:48;;;;;;;4.33;1.77;;;17.30;56.20;;;;;;5107735;27;20198;-47
2023/02/01 07:52:18;;;;;;;6.77;2.03;;;17.50;55.80;;;;;;5105595;28;20200;-45
2023/02/01 07:54:51;;;;;;;5.60;2.03;;;17.60;55.50;;;;;;5078090;27;20259;-45
2023/02/01 07:57:25;;;;;;;4.80;1.90;;;17.80;55.30;;;;;;5109296;27;20192;-48
2023/02/01 08:03:00;;;;;;;3.30;1.77;;;18.00;54.60;;;;;;4977924;28;20219;-48
2023/02/01 08:05:32;;;;;;;4.30;1.77;;;18.20;54.40;;;;;;4972577;28;20348;-45
2023/02/01 08:08:02;;;;;;;4.53;1.70;;;18.30;54.20;;;;;;5078561;28;20246;-44
2023/02/01 08:10:34;;;;;;;5.70;2.03;;;18.40;54.10;;;;;;5109435;27;20208;-47
2023/02/01 08:13:08;;;;;;;4.80;1.80;;;18.50;53.70;;;;;;5091740;28;20210;-47
2023/02/01 08:15:39;;;;;;;5.80;1.97;;;18.60;53.40;;;;;;5106827;28;20208;-47
2023/02/01 08:18:10;;;;;;;7.70;2.07;;;18.70;53.20;;;;;;5109548;28;20223;-47
2023/02/01 08:20:43;;;;;;;5.27;2.37;;;18.80;52.90;;;;;;5106536;28;20738;-47
2023/02/01 08:23:17;;;;;;;5.53;1.70;;;18.90;52.60;;;;;;5108768;28;20954;-47
2023/02/01 08:25:48;;;;;;;6.20;2.23;;;19.00;52.40;;;;;;5109821;27;20620;-47
2023/02/01 08:28:19;;;;;;;6.67;2.10;;;19.10;52.30;;;;;;5108329;27;20211;-47
2023/02/01 08:30:48;;;;;;;4.83;2.13;;;19.20;52.00;;;;;;5104335;28;20215;-44
2023/02/01 08:33:18;;;;;;;3.93;1.70;;;19.30;51.80;;;;;;5107968;27;20196;-45
2023/02/01 08:35:46;;;;;;;6.53;2.40;;;19.30;51.50;;;;;;5106449;28;20231;-45
2023/02/01 08:38:17;;;;;;;3.80;1.60;;;19.40;51.30;;;;;;5109967;27;20280;-45
2023/02/01 08:40:48;;;;;;;5.13;1.63;;;19.40;51.20;;;;;;5108164;27;20418;-47
2023/02/01 08:43:20;;;;;;;7.43;2.13;;;19.70;51.50;;;;;;5098640;28;20208;-47
2023/02/01 08:45:54;;;;;;;3.80;1.90;;;20.10;51.20;;;;;;5108348;28;20192;-45
2023/02/01 08:48:26;;;;;;;4.03;1.83;;;20.40;50.50;;;;;;5102616;28;20184;-45
2023/02/01 08:51:02;;;;;;;5.73;2.10;;;20.70;50.10;;;;;;5106459;28;20660;-44
2023/02/01 08:53:31;;;;;;;3.53;1.70;;;20.90;49.70;;;;;;5092351;27;20188;-45
2023/02/01 08:56:00;;;;;;;4.40;1.73;;;21.10;49.40;;;;;;5109273;27;20730;-44
2023/02/01 08:58:31;;;;;;;14.20;2.17;;;21.20;49.00;;;;;;5105893;28;20618;-44
2023/02/01 09:01:12;;;;;;;4.47;1.90;;;21.40;48.80;;;;;;5107439;27;20723;-49
2023/02/01 09:03:42;;;;;;;3.70;1.80;;;21.60;48.60;;;;;;5072115;28;20196;-48
2023/02/01 09:06:14;;;;;;;2.83;1.67;;;21.80;48.20;;;;;;5090513;28;20197;-46
2023/02/01 09:08:42;;;;;;;4.07;1.77;;;21.90;47.90;;;;;;5087192;28;20599;-46
2023/02/01 09:11:17;;;;;;;4.07;1.87;;;22.10;47.60;;;;;;5111684;28;20196;-46
2023/02/01 09:13:48;;;;;;;4.37;2.00;;;22.30;47.30;;;;;;5089828;28;20222;-46
2023/02/01 09:16:19;;;;;;;4.63;1.80;;;22.40;47.00;;;;;;5104676;28;20291;-46
2023/02/01 09:18:51;;;;;;;3.27;1.67;;;22.50;46.90;;;;;;5098023;28;20267;-46
2023/02/01 09:21:34;;;;;;;4.53;1.83;;;22.60;46.70;;;;;;5106289;28;20220;-47
2023/02/01 09:24:06;;;;;;;3.27;1.57;;;22.80;46.60;;;;;;5094309;28;20196;-47
2023/02/01 09:26:52;;;;;;;3.03;1.50;;;22.80;46.20;;;;;;5100417;28;20188;-45
2023/02/01 09:29:25;;;;;;;4.37;2.20;;;22.90;46.20;;;;;;5110683;28;20196;-46
2023/02/01 09:31:56;;;;;;;3.73;2.00;;;23.00;46.10;;;;;;5107830;28;20200;-48
2023/02/01 09:34:32;;;;;;;3.20;1.83;;;23.10;46.20;;;;;;5101126;28;20238;-47
2023/02/01 09:37:07;;;;;;;2.67;1.57;;;23.20;46.10;;;;;;5069166;28;20212;-47
2023/02/01 09:39:38;;;;;;;4.13;1.90;;;23.30;45.90;;;;;;5084580;28;21035;-47
2023/02/01 09:42:41;;;;;;;3.17;1.83;;;23.30;45.90;;;;;;5069775;28;20208;-47
2023/02/01 09:45:53;;;;;;;3.13;1.60;;;23.40;45.80;;;;;;5087129;28;20506;-45
2023/02/01 09:48:41;;;;;;;3.73;1.97;;;23.50;45.70;;;;;;5093976;28;20203;-45
2023/02/01 09:51:18;;;;;;;3.30;1.77;;;23.50;45.50;;;;;;5081181;28;20248;-49
2023/02/01 09:53:59;;;;;;;5.37;2.07;;;23.60;45.40;;;;;;5081592;28;20216;-49
2023/02/01 09:56:56;;;;;;;5.63;2.07;;;23.70;45.30;;;;;;5065930;28;20200;-49
2023/02/01 09:59:47;;;;;;;7.63;2.10;;;23.70;45.40;;;;;;5084337;28;20220;-48
2023/02/01 10:02:24;;;;;;;2.77;1.70;;;23.80;45.30;;;;;;5086576;28;20246;-45
2023/02/01 10:04:58;;;;;;;3.43;1.80;;;24.00;45.00;;;;;;5080675;28;20603;-46
2023/02/01 10:07:40;;;;;;;4.30;1.90;;;24.10;44.90;;;;;;5065905;28;20192;-48
2023/02/01 10:10:39;;;;;;;4.33;2.07;;;24.10;44.90;;;;;;5088415;28;20208;-47
2023/02/01 10:13:43;;;;;;;3.37;1.67;;;24.20;44.60;;;;;;5087354;28;20209;-46
2023/02/01 10:16:45;;;;;;;5.83;2.00;;;24.30;44.60;;;;;;5068737;28;20650;-45
2023/02/01 10:19:51;;;;;;;3.37;1.67;;;24.40;44.60;;;;;;5075818;28;20216;-45
2023/02/01 10:23:03;;;;;;;4.23;2.00;;;24.40;44.60;;;;;;5075781;28;20192;-47
2023/02/01 10:26:17;;;;;;;3.77;2.00;;;24.50;44.60;;;;;;5085817;28;20703;-48
2023/02/01 10:28:52;;;;;;;5.93;2.03;;;24.60;44.70;;;;;;5084654;28;20235;-45
2023/02/01 10:31:28;;;;;;;6.63;1.87;;;24.70;44.30;;;;;;5065382;28;20199;-46
2023/02/01 10:34:12;;;;;;;6.10;2.10;;;24.70;44.80;;;;;;5086585;28;20859;-46
2023/02/01 10:37:06;;;;;;;4.93;2.00;;;24.80;44.20;;;;;;5105040;28;20210;-46
2023/02/01 10:39:36;;;;;;;4.10;1.97;;;24.80;43.90;;;;;;5086612;28;20232;-46
2023/02/01 10:42:10;;;;;;;3.80;2.00;;;24.80;44.00;;;;;;5089855;28;20212;-45
2023/02/01 10:44:47;;;;;;;7.23;2.47;;;24.80;43.90;;;;;;5104769;28;20196;-45
2023/02/01 10:47:20;;;;;;;5.77;2.60;;;24.60;44.30;;;;;;5098911;28;20265;-45
2023/02/01 10:50:15;;;;;;;5.80;2.13;;;24.20;43.90;;;;;;5113706;28;20851;-45
2023/02/01 10:53:23;;;;;;;3.23;1.87;;;24.00;44.90;;;;;;5101296;28;20224;-44
2023/02/01 10:55:56;;;;;;;4.70;2.10;;;23.60;45.20;;;;;;5013668;28;20624;-45
2023/02/01 10:58:37;;;;;;;4.80;2.10;;;23.30;45.40;;;;;;5097460;28;20202;-46
2023/02/01 11:01:29;;;;;;;14.73;4.30;;;23.10;45.80;;;;;;5096759;27;20201;-46
2023/02/01 11:04:10;;;;;;;36.37;11.53;;;22.90;45.70;;;;;;5095287;27;20215;-46
2023/02/01 11:06:44;;;;;;;40.77;10.93;;;22.70;46.20;;;;;;5107455;27;20592;-45
2023/02/01 11:09:25;;;;;;;37.10;9.23;;;22.50;46.40;;;;;;5112120;27;20264;-45
2023/02/01 11:12:08;;;;;;;28.53;7.80;;;22.30;46.60;;;;;;5092885;28;20196;-45
2023/02/01 11:14:40;;;;;;;18.43;6.23;;;22.10;46.90;;;;;;5105824;28;20219;-45
2023/02/01 11:17:18;;;;;;;27.97;7.20;;;22.00;47.10;;;;;;5057032;28;20212;-45
2023/02/01 11:20:17;;;;;;;27.80;6.60;;;21.80;47.30;;;;;;5109434;28;20223;-45
2023/02/01 11:23:18;;;;;;;18.30;6.10;;;21.70;47.60;;;;;;5088362;27;20242;-45
2023/02/01 11:26:12;;;;;;;16.67;5.40;;;21.60;48.20;;;;;;5085877;28;20611;-45
2023/02/01 11:28:53;;;;;;;16.37;5.53;;;21.40;48.30;;;;;;5098867;28;20598;-45
2023/02/01 11:31:23;;;;;;;18.97;5.90;;;21.20;48.40;;;;;;5089355;27;20767;-45
2023/02/01 11:34:14;;;;;;;18.57;5.30;;;21.00;48.90;;;;;;5089507;28;20200;-45
2023/02/01 11:36:50;;;;;;;13.93;5.07;;;20.90;48.80;;;;;;5084761;28;20203;-45
2023/02/01 11:39:24;;;;;;;12.80;4.77;;;20.80;48.90;;;;;;5091216;27;20712;-45
2023/02/01 11:42:16;;;;;;;13.57;4.80;;;20.80;48.20;;;;;;5100873;28;20257;-45
2023/02/01 11:44:49;;;;;;;12.03;4.57;;;20.70;49.10;;;;;;5073887;28;20272;-45
2023/02/01 11:47:49;;;;;;;12.83;4.20;;;20.60;49.70;;;;;;5075481;27;20647;-45
2023/02/01 11:50:31;;;;;;;11.77;3.77;;;20.60;50.00;;;;;;5105146;28;20216;-45
2023/02/01 11:53:18;;;;;;;13.63;4.73;;;20.50;50.40;;;;;;5081129;28;20192;-45
2023/02/01 11:56:18;;;;;;;11.73;4.00;;;20.50;50.60;;;;;;5108765;28;20200;-44
2023/02/01 11:59:10;;;;;;;10.00;3.87;;;20.40;50.90;;;;;;5105189;27;20200;-46
2023/02/01 12:01:48;;;;;;;10.53;3.67;;;20.40;51.20;;;;;;5103438;28;20208;-45
2023/02/01 12:04:43;;;;;;;12.93;3.63;;;20.40;51.10;;;;;;5105765;28;20212;-46
2023/02/01 12:07:35;;;;;;;10.93;3.50;;;20.40;51.00;;;;;;5109486;28;20214;-46
2023/02/01 12:10:49;;;;;;;8.73;3.80;;;20.40;51.40;;;;;;5109677;28;20633;-46
2023/02/01 12:13:50;;;;;;;11.80;3.03;;;20.30;51.30;;;;;;5004995;28;20247;-45
2023/02/01 12:16:59;;;;;;;10.23;3.30;;;20.30;51.50;;;;;;4996022;28;20301;-46
2023/02/01 12:20:01;;;;;;;9.57;3.00;;;20.20;51.50;;;;;;5006139;28;20231;-45
2023/02/01 12:22:57;;;;;;;8.00;2.87;;;20.20;51.80;;;;;;4989699;28;20212;-45
2023/02/01 12:26:01;;;;;;;7.37;3.23;;;20.20;51.70;;;;;;4999048;28;20358;-45
2023/02/01 12:28:43;;;;;;;6.07;2.80;;;20.20;51.90;;;;;;4986668;28;20270;-46
2023/02/01 12:31:49;;;;;;;9.57;3.00;;;20.20;51.90;;;;;;5007168;28;20583;-46
2023/02/01 12:34:47;;;;;;;12.77;3.87;;;20.10;51.80;;;;;;4991874;28;20251;-46
2023/02/01 12:38:06;;;;;;;12.63;3.90;;;20.00;48.80;;;;;;4982969;28;20267;-46
2023/02/01 12:41:26;;;;;;;16.00;4.20;;;19.80;50.50;;;;;;4981831;28;20253;-46
2023/02/01 12:44:32;;;;;;;8.40;3.23;;;19.60;53.50;;;;;;4958103;28;20219;-46
2023/02/01 12:47:26;;;;;;;11.33;3.30;;;19.50;52.70;;;;;;4986104;28;20541;-45
2023/02/01 12:50:13;;;;;;;6.80;2.67;;;19.50;53.00;;;;;;5039730;28;20209;-45
2023/02/01 12:53:23;;;;;;;11.07;3.43;;;19.50;52.90;;;;;;5072602;28;20226;-45
2023/02/01 12:56:00;;;;;;;6.43;2.80;;;19.40;53.10;;;;;;5076589;28;20223;-45
2023/02/01 12:58:46;;;;;;;10.03;3.03;;;19.50;53.60;;;;;;5065546;28;20216;-45
2023/02/01 13:01:28;;;;;;;9.03;3.20;;;19.50;53.40;;;;;;5086325;28;20223;-44
2023/02/01 13:04:19;;;;;;;10.90;3.27;;;19.50;53.30;;;;;;5071623;28;20213;-45
2023/02/01 13:07:11;;;;;;;7.83;2.80;;;19.60;52.90;;;;;;5085330;28;20201;-45
2023/02/01 13:09:55;;;;;;;7.70;2.80;;;19.50;53.20;;;;;;5084918;28;20200;-45
2023/02/01 13:12:50;;;;;;;7.70;2.73;;;19.50;53.40;;;;;;5083855;28;20193;-45
2023/02/01 13:15:36;;;;;;;6.63;2.77;;;19.60;53.40;;;;;;5077801;28;20614;-46
2023/02/01 13:18:06;;;;;;;7.17;2.70;;;19.60;53.30;;;;;;5077178;28;20193;-46
2023/02/01 13:20:47;;;;;;;8.13;3.30;;;19.60;53.30;;;;;;5058965;28;20511;-46
2023/02/01 13:23:35;;;;;;;7.90;2.80;;;19.60;53.30;;;;;;5076643;28;20274;-45
2023/02/01 13:26:03;;;;;;;10.10;2.87;;;19.60;53.40;;;;;;5073445;28;20189;-45
2023/02/01 13:29:01;;;;;;;7.53;2.60;;;19.60;53.40;;;;;;5088420;28;20602;-45
2023/02/01 13:31:56;;;;;;;10.73;2.43;;;19.60;53.10;;;;;;5093327;28;20189;-45
2023/02/01 13:34:46;;;;;;;6.63;2.50;;;19.60;52.90;;;;;;5099377;28;20712;-45
2023/02/01 13:37:58;;;;;;;5.57;2.13;;;19.60;53.10;;;;;;5109580;28;20319;-45
2023/02/01 13:40:53;;;;;;;9.50;2.00;;;19.60;53.30;;;;;;5116757;27;20231;-46
2023/02/01 13:43:29;;;;;;;6.50;2.40;;;19.60;52.90;;;;;;5119983;28;20253;-45
2023/02/01 13:46:08;;;;;;;9.97;2.73;;;19.50;52.00;;;;;;5098583;28;20191;-45
2023/02/01 13:49:00;;;;;;;7.50;2.20;;;19.50;52.50;;;;;;5105979;28;20615;-45
2023/02/01 13:51:44;;;;;;;7.43;2.50;;;19.50;52.80;;;;;;5090254;28;20222;-45
2023/02/01 13:54:42;;;;;;;6.23;2.13;;;19.40;52.20;;;;;;5090777;28;20215;-45
2023/02/01 13:57:39;;;;;;;6.70;2.33;;;19.40;52.50;;;;;;5106659;28;20516;-48
2023/02/01 14:00:37;;;;;;;6.63;2.30;;;19.30;52.60;;;;;;5078946;28;20314;-47
2023/02/01 14:03:15;;;;;;;5.93;2.30;;;19.30;52.70;;;;;;5094108;28;20270;-47
2023/02/01 14:05:52;;;;;;;5.60;2.20;;;19.30;53.00;;;;;;5070763;28;20596;-47
2023/02/01 14:09:10;;;;;;;6.30;2.43;;;19.30;53.70;;;;;;5104931;28;20195;-48
2023/02/01 14:11:59;;;;;;;4.70;1.97;;;19.30;53.20;;;;;;5086997;28;20765;-48
2023/02/01 14:14:39;;;;;;;6.40;2.37;;;19.30;53.10;;;;;;5106504;28;20205;-48